createdAt,value
2018-04-17T00:08:30.123Z,6.50
2018-04-17T00:11:32.038Z,6.80
2018-04-17T03:15:00.326Z,8.30
2018-04-17T03:17:29.454Z,8.40
2018-04-17T03:19:57.984Z,7.77
2018-04-17T03:22:28.013Z,8.00
2018-04-17T03:25:02.372Z,9.00
2018-04-17T03:27:34.743Z,8.80
2018-04-17T03:30:03.314Z,9.57
2018-04-17T03:32:31.454Z,9.87
2018-04-17T03:35:04.884Z,10.00
2018-04-17T03:37:33.022Z,10.23
2018-04-17T03:40:10.762Z,10.07
2018-04-17T03:42:45.580Z,10.10
2018-04-17T03:45:16.338Z,9.90
2018-04-17T03:47:46.211Z,8.70
2018-04-17T03:50:14.582Z,8.23
2018-04-17T03:52:44.546Z,8.23
2018-04-17T03:55:17.053Z,8.70
2018-04-17T03:57:48.166Z,8.67
2018-04-17T04:00:20.054Z,9.10
2018-04-17T04:02:49.915Z,9.97
2018-04-17T04:05:20.343Z,9.00
2018-04-17T04:07:51.992Z,9.50
2018-04-17T04:10:23.386Z,9.53
2018-04-17T04:12:54.023Z,9.70
2018-04-17T04:15:26.080Z,9.27
2018-04-17T04:18:13.535Z,9.30
2018-04-17T04:21:00.215Z,9.43
2018-04-17T04:23:50.094Z,10.23
2018-04-17T04:26:44.192Z,10.30
2018-04-17T04:29:22.634Z,10.43
2018-04-17T04:31:54.007Z,10.10
2018-04-17T04:34:37.247Z,10.93
2018-04-17T04:37:36.851Z,10.13
2018-04-17T04:40:15.957Z,9.90
2018-04-17T04:42:47.384Z,9.57
2018-04-17T04:45:20.909Z,9.30
2018-04-17T04:47:53.037Z,9.53
2018-04-17T04:50:22.588Z,10.43
2018-04-17T04:52:54.545Z,10.80
2018-04-17T04:55:22.712Z,9.40
2018-04-17T04:57:52.501Z,9.87
2018-04-17T05:00:22.766Z,9.93
2018-04-17T05:02:52.113Z,12.00
2018-04-17T05:05:26.316Z,10.30
2018-04-17T05:07:55.467Z,10.03
2018-04-17T05:10:30.377Z,10.10
2018-04-17T05:13:01.406Z,10.93
2018-04-17T05:15:30.355Z,10.33
2018-04-17T05:18:01.906Z,10.77
2018-04-17T05:20:30.826Z,10.50
2018-04-17T05:22:59.462Z,10.53
2018-04-17T05:25:34.623Z,11.80
2018-04-17T05:28:04.479Z,10.63
2018-04-17T05:30:34.316Z,12.23
2018-04-17T05:33:03.458Z,10.80
2018-04-17T05:35:32.766Z,9.73
2018-04-17T05:38:03.720Z,12.03
2018-04-17T05:40:35.833Z,11.50
2018-04-17T05:43:04.374Z,11.53
2018-04-17T05:45:39.048Z,12.00
2018-04-17T05:48:09.578Z,11.60
2018-04-17T05:50:41.376Z,11.13
2018-04-17T05:53:16.361Z,12.90
2018-04-17T05:55:46.572Z,12.80
2018-04-17T05:58:14.911Z,13.20
2018-04-17T06:00:44.050Z,12.27
2018-04-17T06:03:12.220Z,12.97
2018-04-17T06:05:40.295Z,13.80
2018-04-17T06:10:43.312Z,13.97
2018-04-17T06:16:42.785Z,12.60
2018-04-17T06:19:20.345Z,12.00
2018-04-17T06:21:53.236Z,13.03
2018-04-17T06:24:22.133Z,14.03
2018-04-17T06:26:50.593Z,14.37
2018-04-17T06:35:10.934Z,15.17
2018-04-17T06:37:42.972Z,14.03
2018-04-17T06:40:14.534Z,13.40
2018-04-17T06:45:24.505Z,15.87
2018-04-17T06:48:07.526Z,16.37
2018-04-17T06:50:47.808Z,13.97
2018-04-17T06:53:22.259Z,13.90
2018-04-17T06:56:02.320Z,17.77
2018-04-17T07:01:14.332Z,13.90
2018-04-17T07:03:56.970Z,13.60
2018-04-17T07:06:46.345Z,15.30
2018-04-17T07:12:28.290Z,15.30
2018-04-17T07:18:28.996Z,16.37
2018-04-17T07:21:04.197Z,14.07
2018-04-17T07:23:42.798Z,15.23
2018-04-17T07:26:19.986Z,17.13
2018-04-17T07:28:51.958Z,15.03
2018-04-17T07:31:25.481Z,13.67
2018-04-17T07:34:00.564Z,14.23
2018-04-17T07:36:32.055Z,14.60
2018-04-17T07:39:08.676Z,15.63
2018-04-17T07:44:27.224Z,14.63
2018-04-17T07:50:20.999Z,15.30
2018-04-17T07:53:13.180Z,16.23
2018-04-17T08:01:54.452Z,15.17
2018-04-17T08:04:23.948Z,16.60
2018-04-17T08:06:54.853Z,16.73
2018-04-17T08:09:33.068Z,15.40
2018-04-17T08:12:02.105Z,15.30
2018-04-17T08:14:36.424Z,15.80
2018-04-17T08:17:15.376Z,17.30
2018-04-17T08:19:56.309Z,16.57
2018-04-17T08:22:29.494Z,16.50
2018-04-17T08:25:02.136Z,16.90
2018-04-17T08:27:42.484Z,16.63
2018-04-17T08:30:15.560Z,16.73
2018-04-17T08:32:54.101Z,16.73
2018-04-17T08:35:28.445Z,16.80
2018-04-17T08:38:04.440Z,16.30
2018-04-17T08:40:43.627Z,16.63
2018-04-17T08:43:19.994Z,16.53
2018-04-17T08:45:53.234Z,14.87
2018-04-17T08:48:25.475Z,15.60
2018-04-17T08:54:01.519Z,15.30
2018-04-17T08:56:39.176Z,28.57
2018-04-17T08:59:16.810Z,19.43
2018-04-17T09:01:51.525Z,19.37
2018-04-17T09:04:27.291Z,18.73
2018-04-17T09:06:58.187Z,17.77
2018-04-17T09:09:27.854Z,16.37
2018-04-17T09:12:00.145Z,16.80
2018-04-17T09:17:26.833Z,17.40
2018-04-17T09:20:04.217Z,15.90
2018-04-17T09:22:46.395Z,16.53
2018-04-17T09:25:28.256Z,15.03
2018-04-17T09:28:23.879Z,14.83
2018-04-17T09:34:13.875Z,14.43
2018-04-17T09:37:10.079Z,11.90
2018-04-17T09:43:12.693Z,14.43
2018-04-17T10:05:04.643Z,13.60
2018-04-17T10:07:56.109Z,13.93
2018-04-17T10:14:02.296Z,15.20
2018-04-17T10:20:26.566Z,16.10
2018-04-17T10:23:23.752Z,15.77
2018-04-17T10:26:33.187Z,14.77
2018-04-17T10:45:06.229Z,10.10
2018-04-17T10:48:05.714Z,8.57
2018-04-17T10:53:48.787Z,8.50
2018-04-17T10:56:39.513Z,7.47
2018-04-17T10:59:23.414Z,6.20
2018-04-17T11:05:10.323Z,6.20
2018-04-17T11:07:51.251Z,6.13
2018-04-17T11:13:46.649Z,8.63
2018-04-17T11:25:29.895Z,7.30
2018-04-17T11:31:33.541Z,9.10
2018-04-17T11:41:56.233Z,8.60
2018-04-17T11:47:34.944Z,7.87
2018-04-17T11:53:43.165Z,10.43
2018-04-17T11:56:45.042Z,10.70
2018-04-17T12:02:12.129Z,10.93
2018-04-17T12:07:31.651Z,11.20
2018-04-17T12:10:12.889Z,10.80
2018-04-17T12:15:38.998Z,8.00
2018-04-17T12:18:14.716Z,6.93
2018-04-17T12:20:47.742Z,8.03
2018-04-17T12:30:44.585Z,8.03
2018-04-17T12:36:42.510Z,7.90
2018-04-17T12:39:20.860Z,7.47
2018-04-17T12:45:14.440Z,9.00
2018-04-17T13:00:51.677Z,10.40
2018-04-17T13:03:40.676Z,15.83
2018-04-17T13:06:33.166Z,11.30
2018-04-17T13:22:02.641Z,10.70
2018-04-17T13:24:56.840Z,11.90
2018-04-17T13:27:45.941Z,11.23
2018-04-17T13:50:03.709Z,12.10
2018-04-17T13:58:22.610Z,12.83
2018-04-17T14:00:59.507Z,14.00
2018-04-17T14:03:37.916Z,12.20
2018-04-17T14:06:13.230Z,12.70
2018-04-17T14:08:49.980Z,14.67
2018-04-17T14:11:26.569Z,12.30
2018-04-17T14:13:58.529Z,12.03
2018-04-17T14:16:41.505Z,11.60
2018-04-17T14:19:16.431Z,11.70
2018-04-17T14:21:55.142Z,11.00
2018-04-17T14:24:33.400Z,11.10
2018-04-17T14:27:10.949Z,11.37
2018-04-17T14:29:48.902Z,11.53
2018-04-17T14:32:26.847Z,10.17
2018-04-17T14:35:08.563Z,12.07
2018-04-17T14:37:39.475Z,10.53
2018-04-17T14:40:15.664Z,11.30
2018-04-17T14:42:46.523Z,11.47
2018-04-17T14:45:30.025Z,12.03
2018-04-17T14:48:10.283Z,13.20
2018-04-17T14:50:50.541Z,12.47
2018-04-17T14:56:35.438Z,11.10
2018-04-17T14:59:14.969Z,11.37
2018-04-17T15:01:57.397Z,11.57
2018-04-17T15:04:40.103Z,10.67
2018-04-17T15:07:12.208Z,13.30
2018-04-17T15:09:43.930Z,12.67
2018-04-17T15:12:13.014Z,12.23
2018-04-17T15:14:47.440Z,11.83
2018-04-17T15:17:18.329Z,10.60
2018-04-17T15:19:51.833Z,10.63
2018-04-17T15:22:23.589Z,17.17
2018-04-17T15:24:54.091Z,11.40
2018-04-17T15:27:25.076Z,12.10
2018-04-17T15:29:55.433Z,13.20
2018-04-17T15:32:24.240Z,11.60
2018-04-17T15:34:54.626Z,12.37
2018-04-17T15:37:23.558Z,12.90
2018-04-17T15:50:37.614Z,12.17
2018-04-17T15:53:08.912Z,11.00
2018-04-17T15:55:41.234Z,10.13
2018-04-17T15:58:15.662Z,10.27
2018-04-17T16:00:47.151Z,10.70
2018-04-17T16:03:18.568Z,11.40
2018-04-17T16:05:51.180Z,10.30
2018-04-17T16:08:21.951Z,10.70
2018-04-17T16:10:54.410Z,11.10
2018-04-17T16:13:24.280Z,10.63
2018-04-17T16:15:54.069Z,11.33
2018-04-17T16:18:28.548Z,9.90
2018-04-17T16:21:01.942Z,10.13
2018-04-17T16:23:33.456Z,10.87
2018-04-17T16:26:04.051Z,10.70
2018-04-17T16:28:45.424Z,11.10
2018-04-17T16:31:18.608Z,9.50
2018-04-17T16:33:51.538Z,12.07
2018-04-17T16:36:22.175Z,11.10
2018-04-17T16:38:52.890Z,10.70
2018-04-17T16:41:24.045Z,9.87
2018-04-17T16:43:53.997Z,9.23
2018-04-17T16:46:25.428Z,9.70
2018-04-17T16:48:59.023Z,10.77
2018-04-17T16:51:29.254Z,9.10
2018-04-17T16:53:59.003Z,10.53
2018-04-17T16:56:31.285Z,11.17
2018-04-17T16:59:00.938Z,10.03
2018-04-17T17:01:29.250Z,9.83
2018-04-17T17:03:59.420Z,10.40
2018-04-17T17:06:30.267Z,11.70
2018-04-17T17:09:00.443Z,11.90
2018-04-17T17:11:31.391Z,10.57
2018-04-17T17:14:02.761Z,9.77
2018-04-17T17:16:36.039Z,9.53
2018-04-17T17:19:09.339Z,10.07
2018-04-17T17:21:42.671Z,10.80
2018-04-17T17:24:12.205Z,10.63
2018-04-17T17:29:25.927Z,12.70
2018-04-17T17:31:55.999Z,9.50
2018-04-17T17:34:24.905Z,10.73
2018-04-17T17:36:54.325Z,9.30
2018-04-17T17:39:23.458Z,9.27
2018-04-17T17:41:52.764Z,9.57
2018-04-17T17:44:21.007Z,8.53
2018-04-17T17:46:51.841Z,7.83
2018-04-17T17:49:21.173Z,8.83
2018-04-17T17:51:51.777Z,9.50
2018-04-17T17:54:21.520Z,11.87
2018-04-17T17:56:51.087Z,20.13
2018-04-17T17:59:21.923Z,16.23
2018-04-17T18:02:00.971Z,10.60
2018-04-17T18:04:30.073Z,8.00
2018-04-17T18:06:59.188Z,6.77
2018-04-17T18:12:06.431Z,9.73
2018-04-17T18:14:40.849Z,10.90
2018-04-17T18:17:10.950Z,17.80
2018-04-17T18:20:10.198Z,14.50
2018-04-17T18:22:52.051Z,14.53
2018-04-17T18:25:28.056Z,13.10
2018-04-17T18:27:58.102Z,14.50
2018-04-17T18:30:29.812Z,13.60
2018-04-17T18:33:00.134Z,17.43
2018-04-17T18:35:34.892Z,13.33
2018-04-17T18:38:07.152Z,9.30
2018-04-17T18:40:39.952Z,10.50
2018-04-17T18:43:09.253Z,11.30
2018-04-17T18:45:37.497Z,10.70
2018-04-17T18:48:05.747Z,9.77
2018-04-17T18:50:34.653Z,10.43
2018-04-17T18:53:03.575Z,10.50
2018-04-17T18:55:31.852Z,16.07
2018-04-17T18:57:59.985Z,16.23
2018-04-17T19:00:28.140Z,16.40
2018-04-17T19:02:56.345Z,12.93
2018-04-17T19:05:24.881Z,10.70
2018-04-17T19:07:54.536Z,10.50
2018-04-17T19:10:22.657Z,9.67
2018-04-17T19:12:54.548Z,8.30
2018-04-17T19:15:22.974Z,8.77
2018-04-17T19:17:52.257Z,7.47
2018-04-17T19:20:22.562Z,7.77
2018-04-17T19:22:50.866Z,8.30
2018-04-17T19:25:19.893Z,9.53
2018-04-17T19:27:48.984Z,8.10
2018-04-17T19:30:21.281Z,8.77
2018-04-17T19:32:50.499Z,10.30
2018-04-17T19:35:18.632Z,12.50
2018-04-17T19:37:46.945Z,10.50
2018-04-17T19:40:15.148Z,8.27
2018-04-17T19:42:43.322Z,8.17
2018-04-17T19:45:12.397Z,8.30
2018-04-17T19:47:42.521Z,9.97
2018-04-17T19:50:11.695Z,8.70
2018-04-17T19:52:40.060Z,10.93
2018-04-17T19:55:13.070Z,22.93
2018-04-17T19:57:41.365Z,27.10
2018-04-17T20:00:09.695Z,9.63
2018-04-17T20:02:38.016Z,10.67
2018-04-17T20:05:06.836Z,9.50
2018-04-17T20:07:35.973Z,8.90
2018-04-17T20:10:04.849Z,9.60
2018-04-17T20:12:33.757Z,11.23
2018-04-17T20:15:01.925Z,11.80
2018-04-17T20:17:30.880Z,11.83
2018-04-17T20:20:04.281Z,11.17
2018-04-17T20:22:32.714Z,11.47
2018-04-17T20:25:00.937Z,11.53
2018-04-17T20:27:29.282Z,10.47
2018-04-17T20:29:58.282Z,11.63
2018-04-17T20:32:26.394Z,11.13
2018-04-17T20:34:58.301Z,17.40
2018-04-17T20:37:26.476Z,13.47
2018-04-17T20:39:58.269Z,11.40
2018-04-17T20:42:26.526Z,10.63
2018-04-17T20:44:54.698Z,10.30
2018-04-17T20:47:22.863Z,9.80
2018-04-17T20:49:51.777Z,10.23
2018-04-17T20:52:20.007Z,10.33
2018-04-17T20:54:48.818Z,10.40
2018-04-17T20:57:17.001Z,10.20
2018-04-17T21:00:20.389Z,10.57
2018-04-17T21:02:55.754Z,10.13
2018-04-17T21:05:45.444Z,10.43
2018-04-17T23:05:09.293Z,13.60
2018-04-17T23:10:27.702Z,11.33
2018-04-17T23:13:04.754Z,12.50
2018-04-17T23:15:43.090Z,12.27
2018-04-17T23:18:17.445Z,11.90
2018-04-17T23:20:49.073Z,13.20
2018-04-17T23:23:21.392Z,12.07
2018-04-17T23:25:54.029Z,12.23
2018-04-17T23:28:48.724Z,13.00
2018-04-17T23:31:24.811Z,12.33
2018-04-17T23:34:01.610Z,13.50
2018-04-17T23:36:36.906Z,13.70
2018-04-17T23:39:11.365Z,13.00
2018-04-17T23:41:43.382Z,13.93
2018-04-17T23:44:14.252Z,13.63
2018-04-17T23:49:24.857Z,14.50
2018-04-17T23:51:59.903Z,14.47
2018-04-17T23:54:34.564Z,14.80
2018-04-17T23:57:20.882Z,14.70
